• Join FlightAware (Why Join?)
  • Login
  • US Flag 
11:19PM EDT


 

Airport Tracker/Info


-or-


 

Live Flight TrackerFlight Track Log ✈ SWA34 ✈ 05/May/2013 ✈ KORF - KATL

Flight Track Log - Related Links

Times and Time Zones

All times are in EDT time to prevent confusion due to time zone crossing. See the SWA34 flight status page for this flight to view local times or setup timezone preferences in your user account.

Time Position Orientation Groundspeed Altitude Reporting Facility
EDT Latitude Longitude Course Direction KTS MPH feet Rate Location/Type
10:26AM 36.9036 -76.1919 357° North 136 157 800  Level Washington Center
10:27AM 36.9453 -76.1947 357° North 235 270 3,000 2,280 Climbing Washington Center
10:28AM 36.9553 -76.2728 279° West 236 272 5,600 3,180 Climbing Washington Center
10:29AM 36.9567 -76.3717 271° West 257 296 9,700 3,480 Climbing Washington Center
10:30AM 36.9206 -76.4725 246° West 287 330 12,700 3,300 Climbing Washington Center
10:31AM 36.8781 -76.5864 245° Southwest 328 377 16,400 3,360 Climbing Washington Center
10:32AM 36.8311 -76.7025 243° Southwest 358 412 19,500 3,060 Climbing Washington Center
10:33AM 36.7861 -76.8239 245° Southwest 379 436 22,500 2,940 Climbing Washington Center
10:34AM 36.7367 -76.9525 244° Southwest 393 452 25,300 2,520 Climbing Washington Center
10:35AM 36.6831 -77.0786 242° Southwest 404 465 27,700 2,160 Climbing Washington Center
10:36AM 36.6231 -77.2042 239° Southwest 415 478 29,700 1,920 Climbing Washington Center
10:37AM 36.5647 -77.3375 241° Southwest 428 493 31,600 1,980 Climbing Washington Center
10:38AM 36.4942 -77.4572 234° Southwest 433 498 33,700 2,280 Climbing Washington Center
10:39AM 36.4086 -77.5792 229° Southwest 438 504 36,300 2,160 Climbing Washington Center
10:40AM 36.3358 -77.6883 230° Southwest 428 493 38,100 1,500 Climbing Washington Center
10:41AM 36.2631 -77.7919 229° Southwest 420 483 39,300 900 Climbing Washington Center
10:42AM 36.1839 -77.9003 228° Southwest 420 483 40,000 300 Climbing Washington Center
10:43AM 36.1086 -78.0114 230° Southwest 420 483 40,000  Level Washington Center
10:44AM 36.0314 -78.1167 228° Southwest 427 491 40,000  Level Washington Center
10:45AM 35.9561 -78.2247 229° Southwest 427 491 40,000  Level Washington Center
10:46AM 35.8786 -78.3325 228° Southwest 427 491 40,000  Level Washington Center
10:47AM 35.8031 -78.4400 229° Southwest 427 491 40,000  Level Washington Center
10:48AM 35.7272 -78.5497 230° Southwest 427 491 40,000  Level Washington Center
10:49AM 35.6494 -78.6619 230° Southwest 427 491 40,000  Level Washington Center
10:50AM 35.5739 -78.7536 225° Southwest 434 499 40,000  Level Washington Center
10:51AM 35.4958 -78.8678 230° Southwest 434 499 40,000  Level Washington Center
10:52AM 35.4156 -78.9767 228° Southwest 434 499 40,000  Level Washington Center
10:53AM 35.3331 -79.0903 228° Southwest 428 493 40,000  Level Washington Center
10:54AM 35.2589 -79.1914 228° Southwest 428 493 40,000  Level Washington Center
10:55AM 35.1828 -79.2947 228° Southwest 428 493 40,000  Level Washington Center
10:57AM 35.0561 -79.4642 228° Southwest 426 490 40,000  Level Jacksonville Center
10:58AM 34.9817 -79.5686 229° Southwest 421 484 40,000  Level Jacksonville Center
10:59AM 34.9031 -79.6728 227° Southwest 421 484 40,000  Level Jacksonville Center
11:00AM 34.8283 -79.7744 228° Southwest 421 484 40,000  Level Jacksonville Center
11:01AM 34.7517 -79.8756 227° Southwest 421 484 40,000  Level Jacksonville Center
11:02AM 34.6833 -79.9892 234° Southwest 421 484 40,000  Level Jacksonville Center
11:03AM 34.6214 -80.1072 238° Southwest 421 484 40,000  Level Jacksonville Center
11:04AM 34.5592 -80.2203 236° Southwest 421 484 40,000  Level Jacksonville Center
11:05AM 34.4925 -80.3306 234° Southwest 416 479 40,000  Level Jacksonville Center
11:06AM 34.4281 -80.4408 235° Southwest 411 473 40,000 -60 Level Jacksonville Center
11:07AM 34.3636 -80.5558 236° Southwest 411 473 39,900  Descending Jacksonville Center
11:08AM 34.2967 -80.6681 234° Southwest 411 473 40,000  Climbing Jacksonville Center
11:09AM 34.2319 -80.7803 235° Southwest 411 473 40,000  Level Jacksonville Center
11:10AM 34.1689 -80.8872 235° Southwest 411 473 40,000  Level Jacksonville Center
11:11AM 34.1039 -80.9992 235° Southwest 411 473 40,000 -600 Level Jacksonville Center
11:12AM 33.9786 -81.2056 234° Southwest 407 468 38,400 -1,140 Descending Atlanta Center
11:13AM 33.9164 -81.3128 235° Southwest 407 468 36,800 -1,200 Descending Atlanta Center
11:14AM 33.8519 -81.4225 235° Southwest 407 468 36,000 -420 Descending Atlanta Center
11:15AM 33.7853 -81.5294 233° Southwest 407 468 36,000  Level Atlanta Center
11:16AM 33.7228 -81.6386 235° Southwest 407 468 36,000  Level Atlanta Center
11:17AM 33.6581 -81.7478 235° Southwest 407 468 36,000  Level Atlanta Center
11:18AM 33.6122 -81.8711 246° West 407 468 36,000 -420 Level Atlanta Center
11:19AM 33.5747 -81.9969 250° West 407 468 35,200 -660 Descending Atlanta Center
11:20AM 33.5350 -82.1222 249° West 407 468 34,700 -780 Descending Atlanta Center
11:21AM 33.4994 -82.2528 252° West 412 474 33,700 -1,020 Descending Atlanta Center
11:22AM 33.4764 -82.4025 260° West 412 474 32,700 -960 Descending Atlanta Center
11:23AM 33.4572 -82.5250 259° West 417 480 31,800 -900 Descending Atlanta Center
11:24AM 33.4294 -82.6575 256° West 412 474 30,900 -960 Descending Atlanta Center
11:25AM 33.4081 -82.7897 259° West 412 474 29,900 -1,020 Descending Atlanta Center
11:26AM 33.3800 -82.9267 256° West 412 474 28,900 -1,680 Descending Atlanta Center
11:27AM 33.3583 -83.0614 259° West 412 474 26,600 -2,700 Descending Atlanta Center
11:28AM 33.3300 -83.1911 255° West 409 471 23,600 -2,880 Descending Atlanta Center
11:29AM 33.3058 -83.3281 258° West 404 465 20,900 -2,820 Descending Atlanta Center
11:30AM 33.2856 -83.4475 259° West 385 443 18,000 -2,940 Descending Atlanta Center
11:31AM 33.2611 -83.5742 257° West 385 443 15,100 -2,940 Descending Atlanta Center
11:32AM 33.2500 -83.6333 257° West 377 434 13,700 -2,160 Descending Atlanta TRACON
11:33AM 33.2333 -83.7500 260° West 349 402 12,000 -900 Descending Atlanta TRACON
11:34AM 33.2333 -83.8333 270° West 304 350 11,900 -780 Descending Atlanta TRACON
11:35AM 33.3167 -83.9000 326° Northwest 316 364 10,400 -1,380 Descending Atlanta TRACON
11:35AM 33.3497 -83.9169 337° Northwest 299 344 9,800 -1,380 Descending Atlanta Center
11:36AM 33.4247 -83.9667 331° Northwest 304 350 8,500 -960 Descending Atlanta Center
11:37AM 33.5042 -83.9692 358° North 282 325 7,900 -660 Descending Atlanta Center
11:38AM 33.5750 -83.9739 357° North 262 302 7,200 -720 Descending Atlanta Center
11:39AM 33.6128 -84.0164 317° Northwest 205 236 6,500 -960 Descending Atlanta Center
11:40AM 33.6314 -84.0936 286° West 216 249 5,300 -1,140 Descending Atlanta Center
11:41AM 33.6333 -84.1333 273° West 231 266 5,000 -780 Descending Atlanta TRACON
11:42AM 33.6333 -84.2000 270° West 208 239 4,300 -840 Descending Atlanta TRACON
11:43AM 33.6333 -84.2667 270° West 193 222 3,300 -960 Descending Atlanta TRACON
11:44AM 33.6333 -84.3333 270° West 171 197 2,400 -840 Descending Atlanta TRACON
11:45AM 33.6333 -84.3833 270° West 134 154 1,700 -720 Descending Atlanta TRACON
11:47AM 33.6333 -84.4167 280° West  Level FlightAware Approximate
11:54AM 33.6367 -84.4279 280° West  Level Estimated
11:55AM 33.6367 -84.4279 280° West  Level Estimated